• Join FlightAware (Why Join?)
  • Login
  • US Flag 
09:00AM EST


 

Airport Tracker/Info


-or-


 

Live Flight TrackerFlight Track Log ✈ ASQ5941 ✈ 26-Feb-2014 ✈ KORD - KAVP

Flight Track Log - Related Links

Times and Time Zones

All times are in EST time to prevent confusion due to time zone crossing. See the ASQ5941 flight status page for this flight to view local times or setup timezone preferences in your user account.

Time Position Orientation Groundspeed Altitude Reporting Facility
EST Latitude Longitude Course Direction KTS MPH feet Rate Location/Type
03:56PM 42.0000 -87.9333 26° Northeast 153 176 1,900  Level Chicago TRACON
03:57PM 42.0500 -87.9000 26° Northeast 229 264 3,900 1,980 Climbing Chicago TRACON
03:58PM 42.1000 -87.8333 45° Northeast 283 326 5,900 2,100 Climbing Chicago TRACON
04:00PM 42.1036 -87.6317 89° East 306 352 9,800 2,100 Climbing Chicago Center
04:01PM 42.1058 -87.5100 89° East 320 368 11,800 1,500 Climbing Chicago Center
04:02PM 42.1089 -87.3803 88° East 341 392 12,900 960 Climbing Chicago Center
04:03PM 42.1106 -87.2336 89° East 380 437 13,900 960 Climbing Chicago Center
04:04PM 42.1131 -87.0808 89° East 404 465 14,900 1,020 Climbing Chicago Center
04:05PM 42.1164 -86.9211 88° East 423 487 16,100 1,320 Climbing Chicago Center
04:06PM 42.1242 -86.7317 87° East 423 487 17,700 1,200 Climbing Chicago Center
04:07PM 42.1275 -86.5822 88° East 434 499 18,600 840 Climbing Chicago Center
04:08PM 42.1283 -86.4150 90° East 444 511 19,500 780 Climbing Chicago Center
04:09PM 42.1294 -86.2444 89° East 453 521 20,300 840 Climbing Chicago Center
04:10PM 42.1297 -86.0306 90° East 471 542 21,300 1,020 Climbing Chicago Center
04:11PM 42.1317 -85.8639 89° East 482 555 22,500 1,200 Climbing Chicago Center
04:12PM 42.1319 -85.6867 90° East 478 550 23,800 1,320 Climbing Chicago Center
04:14PM 42.1331 -85.4736 90° East 478 550 25,300 1,380 Climbing Chicago Center
04:15PM 42.1322 -85.2986 90° East 472 543 26,700 1,320 Climbing Chicago Center
04:16PM 42.1342 -85.1247 89° East 468 539 28,100 1,140 Climbing Chicago Center
04:17PM 42.1333 -84.9558 90° East 461 531 29,100 960 Climbing Chicago Center
04:18PM 42.1292 -84.7853 92° East 459 528 30,100 1,020 Climbing Chicago Center
04:19PM 42.1258 -84.6136 91° East 460 529 31,300 1,260 Climbing Chicago Center
04:20PM 42.1306 -84.4094 88° East 462 532 32,800 1,260 Climbing Chicago Center
04:20PM 42.1408 -84.3097 82° East 458 527 33,400 960 Climbing Cleveland Center
04:21PM 42.1606 -84.1389 81° East 460 529 34,400 720 Climbing Cleveland Center
04:22PM 42.1789 -83.9669 82° East 464 534 35,000 240 Climbing Cleveland Center
04:23PM 42.1983 -83.7886 82° East 481 554 35,000  Level Cleveland Center
04:24PM 42.2189 -83.6006 82° East 503 579 35,000  Level Cleveland Center
04:25PM 42.2311 -83.3969 85° East 517 595 35,000  Level Cleveland Center
04:27PM 42.2319 -83.1900 90° East 521 600 35,000  Level Cleveland Center
04:28PM 42.2331 -82.9961 89° East 521 600 35,000  Level Cleveland Center
04:29PM 42.2336 -82.7622 90° East 521 600 35,000  Level Cleveland Center
04:30PM 42.2344 -82.6078 90° East 520 598 35,000  Level Cleveland Center
04:31PM 42.2347 -82.3744 90° East 520 598 35,000  Level Cleveland Center
04:32PM 42.2350 -82.1806 90° East 520 598 35,000  Level Cleveland Center
04:33PM 42.2339 -81.9844 90° East 520 598 35,000  Level Cleveland Center
04:34PM 42.2325 -81.7536 90° East 520 598 35,000  Level Cleveland Center
04:35PM 42.2314 -81.5569 90° East 520 598 35,000  Level Cleveland Center
04:36PM 42.2308 -81.3897 90° East 522 601 35,000  Level Cleveland Center
04:37PM 42.2283 -81.1586 91° East 522 601 35,000  Level Cleveland Center
04:38PM 42.2250 -80.9606 91° East 522 601 35,000  Level Cleveland Center
04:39PM 42.2231 -80.7611 91° East 523 602 35,000  Level Cleveland Center
04:40PM 42.2047 -80.5653 97° East 523 602 35,000  Level Cleveland Center
04:41PM 42.1800 -80.3672 99° East 527 606 35,000  Level Cleveland Center
04:42PM 42.1511 -80.1386 100° East 527 606 35,000  Level Cleveland Center
04:43PM 42.1283 -79.9703 100° East 528 608 35,000  Level Cleveland Center
04:44PM 42.0972 -79.7372 100° East 528 608 35,000  Level Cleveland Center
04:45PM 42.0706 -79.5428 100° East 529 609 35,000 -360 Level Cleveland Center
04:46PM 42.0439 -79.3458 100° East 532 612 34,300 -600 Descending Cleveland Center
04:47PM 42.0167 -79.1531 101° East 527 606 33,800 -660 Descending Cleveland Center
04:48PM 41.9908 -78.9628 100° East 521 600 33,000 -900 Descending Cleveland Center
04:49PM 41.9631 -78.7706 101° East 521 600 32,000 -1,080 Descending Cleveland Center
04:50PM 41.9297 -78.5394 101° East 525 604 30,800 -1,500 Descending Cleveland Center
04:51PM 41.9017 -78.3461 101° East 525 604 29,000 -1,800 Descending Cleveland Center
04:52PM 41.8731 -78.1519 101° East 527 606 27,100 -1,860 Descending Cleveland Center
04:53PM 41.8444 -77.9594 101° East 527 606 25,200 -1,620 Descending Cleveland Center
04:54PM 41.8147 -77.7669 102° East 528 608 23,800 -1,020 Descending Cleveland Center
04:56PM 41.7853 -77.5817 102° East 518 596 23,100 -480 Descending Cleveland Center
04:57PM 41.7517 -77.3647 102° East 508 585 22,900 -1,020 Descending Cleveland Center
04:58PM 41.7153 -77.1344 102° East 513 590 20,900 -1,800 Descending New York Center
04:59PM 41.6872 -76.9567 102° East 500 575 18,900 -2,280 Descending New York Center
05:00PM 41.6625 -76.7933 101° East 475 547 16,400 -2,520 Descending New York Center
05:01PM 41.6328 -76.6381 104° East 448 516 13,900 -2,220 Descending New York Center
05:02PM 41.6106 -76.4919 101° East 418 481 12,000 -1,680 Descending New York Center
05:03PM 41.5897 -76.3625 102° East 376 433 10,600 -1,320 Descending New York Center
05:04PM 41.5736 -76.2614 102° East 325 374 9,400 -1,500 Descending New York Center
05:05PM 41.5392 -76.1475 112° Southeast 300 345 7,700 -1,380 Descending New York Center
05:06PM 41.4861 -76.0769 135° Southeast 276 318 6,700 -960 Descending New York Center
05:07PM 41.4350 -76.0092 135° Southeast 265 305 5,800 -900 Descending New York Center
05:08PM 41.3828 -75.9636 147° Southeast 259 298 4,900 -840 Descending New York Center
05:09PM 41.3267 -75.9153 147° Southeast 254 292 4,200 -660 Descending New York Center
05:10PM 41.2786 -75.8700 145° Southeast 236 272 3,600 -600 Descending New York Center
05:11PM 41.2542 -75.8103 119° Southeast 169 194 3,100 -660 Descending New York Center
05:12PM 41.2783 -75.7761 47° Northeast 121 139 2,300 -780 Descending New York Center
05:13PM 41.3067 -75.7506 34° Northeast 115 132 1,600 -600 Descending New York Center
05:14PM 41.3311 -75.7136 49° Northeast 115 132 1,100 3,660 Descending New York Center
05:15PM 41.3533 -75.6822 47° Northeast 115 132 9,000 3,900 Climbing New York Center
05:16PM 41.3756 -75.6478 49° Northeast 115 132 9,000  Level New York Center
05:18PM 41.3333 -75.7167 242° Southwest  Level FlightAware Approximate
05:25PM 41.3385 -75.7234 242° Southwest  Level Estimated